Terminal Aerodrome Forecast
Issued by NWS Wichita, KS

Home | Current Version | Previous Version | Text Only | Print | Product List | Glossary On
Versions: 1 2 3 4 5 6 7 8 9 10 11 12 13 14 15
000
FTUS43 KICT 020500
TAFICT
TAF
KICT 020522Z 0206/0306 18006KT P6SM VCTS FEW040 BKN090CB
     FM020900 VRB03KT P6SM VCTS SCT025 BKN040CB
     FM021200 36009KT P6SM VCTS SCT015 OVC025CB
     FM021700 35016G23KT P6SM VCSH OVC030
     FM030000 34010KT P6SM SKC=

USA.gov is the U.S. government's official web portal to all federal, state and local government web resources and services.